sensor_id;sensor_type;location;lat;lon;timestamp;pressure;altitude;pressure_sealevel;temperature;humidity
23616;BME280;11985;49.404;7.734;2023-08-07T00:00:33;97172.72;;;10.23;100.00
23616;BME280;11985;49.404;7.734;2023-08-07T00:05:36;97171.06;;;10.16;100.00
23616;BME280;11985;49.404;7.734;2023-08-07T00:10:38;97180.00;;;10.15;100.00
23616;BME280;11985;49.404;7.734;2023-08-07T00:15:40;97186.06;;;10.09;100.00
23616;BME280;11985;49.404;7.734;2023-08-07T00:20:43;97184.03;;;10.04;100.00
23616;BME280;11985;49.404;7.734;2023-08-07T00:25:44;97192.16;;;10.02;100.00
23616;BME280;11985;49.404;7.734;2023-08-07T00:30:46;97184.84;;;10.04;100.00
23616;BME280;11985;49.404;7.734;2023-08-07T00:35:49;97179.59;;;10.04;100.00
23616;BME280;11985;49.404;7.734;2023-08-07T00:40:50;97189.72;;;10.08;100.00
23616;BME280;11985;49.404;7.734;2023-08-07T00:45:52;97194.78;;;10.02;100.00
23616;BME280;11985;49.404;7.734;2023-08-07T00:50:55;97191.94;;;9.97;100.00
23616;BME280;11985;49.404;7.734;2023-08-07T00:55:57;97195.00;;;9.94;100.00
23616;BME280;11985;49.404;7.734;2023-08-07T01:00:59;97196.81;;;9.87;100.00
23616;BME280;11985;49.404;7.734;2023-08-07T01:06:02;97203.50;;;9.83;100.00
23616;BME280;11985;49.404;7.734;2023-08-07T01:11:14;97198.25;;;9.83;100.00
23616;BME280;11985;49.404;7.734;2023-08-07T01:16:26;97199.03;;;9.77;100.00
23616;BME280;11985;49.404;7.734;2023-08-07T01:21:32;97195.00;;;9.81;100.00
23616;BME280;11985;49.404;7.734;2023-08-07T01:26:36;97197.22;;;9.84;100.00
23616;BME280;11985;49.404;7.734;2023-08-07T01:31:39;97192.97;;;9.83;100.00
23616;BME280;11985;49.404;7.734;2023-08-07T01:36:44;97203.09;;;9.86;100.00
23616;BME280;11985;49.404;7.734;2023-08-07T01:41:50;97198.25;;;9.83;100.00
23616;BME280;11985;49.404;7.734;2023-08-07T01:46:52;97200.66;;;9.78;100.00
23616;BME280;11985;49.404;7.734;2023-08-07T01:51:54;97202.66;;;9.76;100.00
23616;BME280;11985;49.404;7.734;2023-08-07T01:56:57;97197.00;;;9.66;100.00
23616;BME280;11985;49.404;7.734;2023-08-07T02:01:58;97210.34;;;9.58;100.00
23616;BME280;11985;49.404;7.734;2023-08-07T02:07:00;97215.63;;;9.58;100.00
23616;BME280;11985;49.404;7.734;2023-08-07T02:12:03;97228.97;;;9.56;100.00
23616;BME280;11985;49.404;7.734;2023-08-07T02:17:05;97222.69;;;9.57;100.00
23616;BME280;11985;49.404;7.734;2023-08-07T02:22:07;97233.00;;;9.59;100.00
23616;BME280;11985;49.404;7.734;2023-08-07T02:27:10;97241.91;;;9.58;100.00
23616;BME280;11985;49.404;7.734;2023-08-07T02:32:11;97231.97;;;9.60;100.00
23616;BME280;11985;49.404;7.734;2023-08-07T02:37:13;97229.56;;;9.65;100.00
23616;BME280;11985;49.404;7.734;2023-08-07T02:42:16;97236.44;;;9.66;100.00
23616;BME280;11985;49.404;7.734;2023-08-07T02:47:18;97229.38;;;9.66;100.00
23616;BME280;11985;49.404;7.734;2023-08-07T02:52:19;97228.56;;;9.66;100.00
23616;BME280;11985;49.404;7.734;2023-08-07T02:57:22;97226.34;;;9.69;100.00
23616;BME280;11985;49.404;7.734;2023-08-07T03:02:25;97233.81;;;9.66;100.00
23616;BME280;11985;49.404;7.734;2023-08-07T03:07:26;97231.81;;;9.68;100.00
23616;BME280;11985;49.404;7.734;2023-08-07T03:12:29;97233.44;;;9.69;100.00
23616;BME280;11985;49.404;7.734;2023-08-07T03:17:36;97246.56;;;9.69;100.00
23616;BME280;11985;49.404;7.734;2023-08-07T03:22:38;97244.75;;;9.69;100.00
23616;BME280;11985;49.404;7.734;2023-08-07T03:27:41;97245.97;;;9.67;100.00
23616;BME280;11985;49.404;7.734;2023-08-07T03:32:42;97238.69;;;9.69;100.00
23616;BME280;11985;49.404;7.734;2023-08-07T03:37:44;97245.97;;;9.73;100.00
23616;BME280;11985;49.404;7.734;2023-08-07T03:42:47;97249.63;;;9.72;100.00
23616;BME280;11985;49.404;7.734;2023-08-07T03:47:48;97246.38;;;9.77;100.00
23616;BME280;11985;49.404;7.734;2023-08-07T03:52:50;97255.09;;;9.77;100.00
23616;BME280;11985;49.404;7.734;2023-08-07T03:57:53;97245.59;;;9.83;100.00
23616;BME280;11985;49.404;7.734;2023-08-07T04:02:54;97248.41;;;9.88;100.00
23616;BME280;11985;49.404;7.734;2023-08-07T04:07:56;97256.91;;;9.90;100.00
23616;BME280;11985;49.404;7.734;2023-08-07T04:12:59;97247.41;;;9.89;100.00
23616;BME280;11985;49.404;7.734;2023-08-07T04:18:01;97247.59;;;9.81;100.00
23616;BME280;11985;49.404;7.734;2023-08-07T04:23:02;97248.81;;;9.78;100.00
23616;BME280;11985;49.404;7.734;2023-08-07T04:28:06;97241.53;;;9.81;100.00
23616;BME280;11985;49.404;7.734;2023-08-07T04:33:08;97247.16;;;9.71;100.00
23616;BME280;11985;49.404;7.734;2023-08-07T04:38:09;97252.03;;;9.74;100.00
23616;BME280;11985;49.404;7.734;2023-08-07T04:43:13;97260.53;;;9.76;100.00
23616;BME280;11985;49.404;7.734;2023-08-07T04:48:15;97256.88;;;9.77;100.00
23616;BME280;11985;49.404;7.734;2023-08-07T04:53:18;97257.72;;;9.84;100.00
23616;BME280;11985;49.404;7.734;2023-08-07T04:58:21;97260.16;;;9.99;100.00
23616;BME280;11985;49.404;7.734;2023-08-07T05:03:22;97271.69;;;10.04;100.00
23616;BME280;11985;49.404;7.734;2023-08-07T05:08:24;97266.63;;;10.10;100.00
23616;BME280;11985;49.404;7.734;2023-08-07T05:13:27;97267.44;;;10.03;100.00
23616;BME280;11985;49.404;7.734;2023-08-07T05:18:28;97283.06;;;10.05;100.00
23616;BME280;11985;49.404;7.734;2023-08-07T05:23:30;97280.81;;;10.09;100.00
23616;BME280;11985;49.404;7.734;2023-08-07T05:28:33;97281.63;;;10.02;100.00
23616;BME280;11985;49.404;7.734;2023-08-07T05:33:35;97286.47;;;9.92;100.00
23616;BME280;11985;49.404;7.734;2023-08-07T05:38:36;97294.94;;;9.88;100.00
23616;BME280;11985;49.404;7.734;2023-08-07T05:43:39;97306.47;;;9.87;100.00
23616;BME280;11985;49.404;7.734;2023-08-07T05:48:41;97307.28;;;9.87;100.00
23616;BME280;11985;49.404;7.734;2023-08-07T05:53:42;97309.31;;;9.85;100.00
23616;BME280;11985;49.404;7.734;2023-08-07T05:58:45;97320.44;;;9.87;100.00
23616;BME280;11985;49.404;7.734;2023-08-07T06:03:47;97314.81;;;9.90;100.00
23616;BME280;11985;49.404;7.734;2023-08-07T06:08:49;97322.53;;;10.12;100.00
23616;BME280;11985;49.404;7.734;2023-08-07T06:13:52;97313.25;;;10.36;100.00
23616;BME280;11985;49.404;7.734;2023-08-07T06:18:54;97319.34;;;10.49;100.00
23616;BME280;11985;49.404;7.734;2023-08-07T06:23:55;97322.13;;;10.74;100.00
23616;BME280;11985;49.404;7.734;2023-08-07T06:28:58;97318.44;;;10.95;100.00
23616;BME280;11985;49.404;7.734;2023-08-07T06:34:00;97322.88;;;11.01;100.00
23616;BME280;11985;49.404;7.734;2023-08-07T06:39:02;97328.97;;;10.95;100.00
23616;BME280;11985;49.404;7.734;2023-08-07T06:44:05;97335.88;;;10.96;100.00
23616;BME280;11985;49.404;7.734;2023-08-07T06:49:07;97339.91;;;11.05;100.00
23616;BME280;11985;49.404;7.734;2023-08-07T06:54:08;97347.78;;;11.19;100.00
23616;BME280;11985;49.404;7.734;2023-08-07T06:59:11;97357.72;;;11.17;100.00
23616;BME280;11985;49.404;7.734;2023-08-07T07:04:14;97355.81;;;11.37;100.00
23616;BME280;11985;49.404;7.734;2023-08-07T07:09:15;97367.31;;;11.62;100.00
23616;BME280;11985;49.404;7.734;2023-08-07T07:14:18;97358.72;;;11.74;100.00
23616;BME280;11985;49.404;7.734;2023-08-07T07:19:20;97368.03;;;11.76;100.00
23616;BME280;11985;49.404;7.734;2023-08-07T07:24:21;97370.03;;;11.94;100.00
23616;BME280;11985;49.404;7.734;2023-08-07T07:29:24;97379.44;;;11.70;100.00
23616;BME280;11985;49.404;7.734;2023-08-07T07:34:26;97378.19;;;11.86;100.00
23616;BME280;11985;49.404;7.734;2023-08-07T07:39:28;97372.00;;;12.05;100.00
23616;BME280;11985;49.404;7.734;2023-08-07T07:44:32;97386.28;;;11.91;100.00
23616;BME280;11985;49.404;7.734;2023-08-07T07:49:33;97379.97;;;11.92;100.00
23616;BME280;11985;49.404;7.734;2023-08-07T07:54:35;97388.16;;;12.15;100.00
23616;BME280;11985;49.404;7.734;2023-08-07T07:59:38;97387.13;;;12.48;100.00
23616;BME280;11985;49.404;7.734;2023-08-07T08:04:40;97401.97;;;12.74;100.00
23616;BME280;11985;49.404;7.734;2023-08-07T08:09:42;97394.28;;;12.73;100.00
23616;BME280;11985;49.404;7.734;2023-08-07T08:14:46;97403.53;;;12.82;100.00
23616;BME280;11985;49.404;7.734;2023-08-07T08:19:48;97415.06;;;12.87;100.00
23616;BME280;11985;49.404;7.734;2023-08-07T08:24:52;97420.63;;;13.04;100.00
23616;BME280;11985;49.404;7.734;2023-08-07T08:29:55;97423.72;;;13.01;100.00
23616;BME280;11985;49.404;7.734;2023-08-07T08:34:57;97424.13;;;12.98;100.00
23616;BME280;11985;49.404;7.734;2023-08-07T08:39:58;97422.38;;;12.92;100.00
23616;BME280;11985;49.404;7.734;2023-08-07T08:45:02;97418.19;;;13.03;100.00
23616;BME280;11985;49.404;7.734;2023-08-07T08:50:07;97424.78;;;13.18;100.00
23616;BME280;11985;49.404;7.734;2023-08-07T08:55:10;97426.34;;;13.26;100.00
23616;BME280;11985;49.404;7.734;2023-08-07T09:00:14;97433.53;;;13.44;100.00
23616;BME280;11985;49.404;7.734;2023-08-07T09:05:19;97430.72;;;13.39;100.00
23616;BME280;11985;49.404;7.734;2023-08-07T09:10:21;97436.50;;;13.29;100.00
23616;BME280;11985;49.404;7.734;2023-08-07T09:15:25;97434.91;;;13.28;100.00
23616;BME280;11985;49.404;7.734;2023-08-07T09:20:30;97434.16;;;13.39;100.00
23616;BME280;11985;49.404;7.734;2023-08-07T09:25:33;97438.66;;;13.57;100.00
23616;BME280;11985;49.404;7.734;2023-08-07T09:30:37;97442.06;;;13.83;100.00
23616;BME280;11985;49.404;7.734;2023-08-07T09:35:39;97437.38;;;13.96;100.00
23616;BME280;11985;49.404;7.734;2023-08-07T09:40:41;97448.34;;;14.00;100.00
23616;BME280;11985;49.404;7.734;2023-08-07T09:45:44;97451.19;;;13.98;100.00
23616;BME280;11985;49.404;7.734;2023-08-07T09:50:46;97445.91;;;13.98;100.00
23616;BME280;11985;49.404;7.734;2023-08-07T09:55:47;97450.19;;;14.30;100.00
23616;BME280;11985;49.404;7.734;2023-08-07T10:00:51;97447.13;;;14.33;100.00
23616;BME280;11985;49.404;7.734;2023-08-07T10:05:53;97449.88;;;14.38;97.54
23616;BME280;11985;49.404;7.734;2023-08-07T10:10:56;97451.25;;;14.59;97.85
23616;BME280;11985;49.404;7.734;2023-08-07T10:15:59;97458.94;;;15.14;95.88
23616;BME280;11985;49.404;7.734;2023-08-07T10:21:03;97456.66;;;15.17;90.23
23616;BME280;11985;49.404;7.734;2023-08-07T10:26:08;97455.59;;;15.07;87.08
23616;BME280;11985;49.404;7.734;2023-08-07T10:31:14;97456.78;;;15.11;85.46
23616;BME280;11985;49.404;7.734;2023-08-07T10:36:18;97462.41;;;15.14;86.75
23616;BME280;11985;49.404;7.734;2023-08-07T10:41:20;97458.38;;;15.00;85.94
23616;BME280;11985;49.404;7.734;2023-08-07T10:46:24;97467.41;;;14.69;85.45
23616;BME280;11985;49.404;7.734;2023-08-07T10:51:29;97466.28;;;14.76;86.56
23616;BME280;11985;49.404;7.734;2023-08-07T10:56:32;97449.38;;;15.24;85.81
23616;BME280;11985;49.404;7.734;2023-08-07T11:01:40;97461.72;;;15.77;83.42
23616;BME280;11985;49.404;7.734;2023-08-07T11:06:43;97464.56;;;15.99;80.66
23616;BME280;11985;49.404;7.734;2023-08-07T11:11:48;97465.91;;;16.14;77.27
23616;BME280;11985;49.404;7.734;2023-08-07T11:16:52;97464.81;;;16.26;74.40
23616;BME280;11985;49.404;7.734;2023-08-07T11:21:54;97464.75;;;16.21;70.63
23616;BME280;11985;49.404;7.734;2023-08-07T11:26:57;97462.84;;;16.33;70.98
23616;BME280;11985;49.404;7.734;2023-08-07T11:32:00;97463.06;;;16.60;69.66
23616;BME280;11985;49.404;7.734;2023-08-07T11:37:02;97465.81;;;17.11;68.23
23616;BME280;11985;49.404;7.734;2023-08-07T11:42:05;97473.63;;;17.18;65.95
23616;BME280;11985;49.404;7.734;2023-08-07T11:47:09;97462.00;;;17.07;63.99
23616;BME280;11985;49.404;7.734;2023-08-07T11:52:11;97472.16;;;17.44;66.41
23616;BME280;11985;49.404;7.734;2023-08-07T11:57:17;97463.88;;;17.62;64.74
23616;BME280;11985;49.404;7.734;2023-08-07T12:02:24;97471.34;;;17.26;64.95
23616;BME280;11985;49.404;7.734;2023-08-07T12:07:25;97464.91;;;17.78;63.73
23616;BME280;11985;49.404;7.734;2023-08-07T12:12:27;97468.00;;;18.13;62.68
23616;BME280;11985;49.404;7.734;2023-08-07T12:17:31;97457.28;;;17.48;62.11
23616;BME280;11985;49.404;7.734;2023-08-07T12:22:33;97456.34;;;17.03;63.42
23616;BME280;11985;49.404;7.734;2023-08-07T12:27:36;97456.09;;;17.38;64.29
23616;BME280;11985;49.404;7.734;2023-08-07T12:32:39;97458.09;;;18.09;66.83
23616;BME280;11985;49.404;7.734;2023-08-07T12:37:41;97443.84;;;17.98;59.73
23616;BME280;11985;49.404;7.734;2023-08-07T12:42:42;97451.41;;;17.84;58.09
23616;BME280;11985;49.404;7.734;2023-08-07T12:47:45;97452.03;;;17.91;58.67
23616;BME280;11985;49.404;7.734;2023-08-07T12:52:47;97440.75;;;17.84;58.81
23616;BME280;11985;49.404;7.734;2023-08-07T12:57:48;97459.75;;;17.32;57.75
23616;BME280;11985;49.404;7.734;2023-08-07T13:02:52;97452.47;;;17.83;59.40
23616;BME280;11985;49.404;7.734;2023-08-07T13:07:56;97447.06;;;18.22;60.21
23616;BME280;11985;49.404;7.734;2023-08-07T13:12:58;97457.16;;;17.76;59.27
23616;BME280;11985;49.404;7.734;2023-08-07T13:18:03;97450.22;;;17.97;60.52
23616;BME280;11985;49.404;7.734;2023-08-07T13:23:04;97464.59;;;18.67;60.02
23616;BME280;11985;49.404;7.734;2023-08-07T13:28:06;97455.41;;;19.12;60.14
23616;BME280;11985;49.404;7.734;2023-08-07T13:33:09;97469.38;;;19.61;58.40
23616;BME280;11985;49.404;7.734;2023-08-07T13:38:11;97453.88;;;20.16;57.67
23616;BME280;11985;49.404;7.734;2023-08-07T13:43:13;97469.81;;;19.95;54.98
23616;BME280;11985;49.404;7.734;2023-08-07T13:48:16;97481.56;;;19.15;54.35
23616;BME280;11985;49.404;7.734;2023-08-07T13:53:17;97473.66;;;18.66;55.43
23616;BME280;11985;49.404;7.734;2023-08-07T13:58:19;97477.13;;;18.93;56.96
23616;BME280;11985;49.404;7.734;2023-08-07T14:03:22;97479.81;;;19.31;57.62
23616;BME280;11985;49.404;7.734;2023-08-07T14:08:24;97462.25;;;19.82;58.01
23616;BME280;11985;49.404;7.734;2023-08-07T14:13:25;97461.44;;;20.44;57.14
23616;BME280;11985;49.404;7.734;2023-08-07T14:18:28;97471.66;;;19.90;54.53
23616;BME280;11985;49.404;7.734;2023-08-07T14:23:30;97467.59;;;19.77;55.65
23616;BME280;11985;49.404;7.734;2023-08-07T14:28:32;97480.22;;;18.80;54.44
23616;BME280;11985;49.404;7.734;2023-08-07T14:33:36;97484.72;;;18.53;56.29
23616;BME280;11985;49.404;7.734;2023-08-07T14:38:37;97472.44;;;18.52;57.43
23616;BME280;11985;49.404;7.734;2023-08-07T14:43:39;97478.84;;;19.10;58.62
23616;BME280;11985;49.404;7.734;2023-08-07T14:48:42;97490.53;;;19.68;56.86
23616;BME280;11985;49.404;7.734;2023-08-07T14:53:43;97477.31;;;19.93;54.70
23616;BME280;11985;49.404;7.734;2023-08-07T14:58:45;97488.78;;;18.82;55.27
23616;BME280;11985;49.404;7.734;2023-08-07T15:03:48;97478.25;;;18.70;56.15
23616;BME280;11985;49.404;7.734;2023-08-07T15:08:49;97479.28;;;19.71;56.19
23616;BME280;11985;49.404;7.734;2023-08-07T15:13:51;97473.81;;;19.98;52.21
23616;BME280;11985;49.404;7.734;2023-08-07T15:18:54;97480.94;;;19.72;49.90
23616;BME280;11985;49.404;7.734;2023-08-07T15:23:55;97474.81;;;19.82;51.36
23616;BME280;11985;49.404;7.734;2023-08-07T15:28:57;97485.06;;;19.58;51.01
23616;BME280;11985;49.404;7.734;2023-08-07T15:34:00;97484.13;;;19.37;50.21
23616;BME280;11985;49.404;7.734;2023-08-07T15:39:02;97484.34;;;19.62;50.68
23616;BME280;11985;49.404;7.734;2023-08-07T15:44:03;97478.59;;;19.91;49.57
23616;BME280;11985;49.404;7.734;2023-08-07T15:49:07;97479.28;;;19.71;49.39
23616;BME280;11985;49.404;7.734;2023-08-07T15:54:09;97477.75;;;19.80;49.56
23616;BME280;11985;49.404;7.734;2023-08-07T15:59:10;97473.84;;;20.03;47.67
23616;BME280;11985;49.404;7.734;2023-08-07T16:04:13;97468.59;;;20.28;46.80
23616;BME280;11985;49.404;7.734;2023-08-07T16:09:15;97470.69;;;20.11;47.27
23616;BME280;11985;49.404;7.734;2023-08-07T16:14:16;97476.09;;;19.69;46.28
23616;BME280;11985;49.404;7.734;2023-08-07T16:19:20;97477.44;;;19.34;48.32
23616;BME280;11985;49.404;7.734;2023-08-07T16:24:21;97481.38;;;19.59;50.33
23616;BME280;11985;49.404;7.734;2023-08-07T16:29:23;97485.44;;;20.24;49.74
23616;BME280;11985;49.404;7.734;2023-08-07T16:34:26;97474.66;;;21.12;48.78
23616;BME280;11985;49.404;7.734;2023-08-07T16:39:27;97482.94;;;20.95;48.39
23616;BME280;11985;49.404;7.734;2023-08-07T16:44:29;97475.44;;;20.92;49.02
23616;BME280;11985;49.404;7.734;2023-08-07T16:49:32;97487.22;;;21.52;48.47
23616;BME280;11985;49.404;7.734;2023-08-07T16:54:34;97486.06;;;21.89;46.63
23616;BME280;11985;49.404;7.734;2023-08-07T16:59:36;97478.41;;;21.37;46.94
23616;BME280;11985;49.404;7.734;2023-08-07T17:04:39;97470.81;;;19.79;48.42
23616;BME280;11985;49.404;7.734;2023-08-07T17:09:41;97486.41;;;18.64;51.85
23616;BME280;11985;49.404;7.734;2023-08-07T17:14:42;97486.63;;;18.57;54.43
23616;BME280;11985;49.404;7.734;2023-08-07T17:19:45;97480.47;;;19.90;54.43
23616;BME280;11985;49.404;7.734;2023-08-07T17:24:47;97474.59;;;20.61;52.14
23616;BME280;11985;49.404;7.734;2023-08-07T17:29:48;97480.22;;;19.92;52.43
23616;BME280;11985;49.404;7.734;2023-08-07T17:34:52;97485.81;;;19.11;53.82
23616;BME280;11985;49.404;7.734;2023-08-07T17:39:55;97503.22;;;18.37;55.61
23616;BME280;11985;49.404;7.734;2023-08-07T17:44:57;97499.44;;;17.89;57.00
23616;BME280;11985;49.404;7.734;2023-08-07T17:50:00;97508.72;;;17.70;59.08
23616;BME280;11985;49.404;7.734;2023-08-07T17:55:02;97507.78;;;17.76;59.68
23616;BME280;11985;49.404;7.734;2023-08-07T18:00:05;97506.75;;;17.44;60.76
23616;BME280;11985;49.404;7.734;2023-08-07T18:05:09;97502.28;;;16.99;61.75
23616;BME280;11985;49.404;7.734;2023-08-07T18:10:11;97508.91;;;16.79;63.33
23616;BME280;11985;49.404;7.734;2023-08-07T18:15:13;97501.38;;;16.48;64.75
23616;BME280;11985;49.404;7.734;2023-08-07T18:20:16;97501.66;;;16.34;65.37
23616;BME280;11985;49.404;7.734;2023-08-07T18:25:18;97496.34;;;16.34;66.20
23616;BME280;11985;49.404;7.734;2023-08-07T18:30:19;97491.50;;;16.31;67.41
23616;BME280;11985;49.404;7.734;2023-08-07T18:35:23;97490.16;;;16.17;69.35
23616;BME280;11985;49.404;7.734;2023-08-07T18:40:25;97494.72;;;16.05;71.12
23616;BME280;11985;49.404;7.734;2023-08-07T18:45:26;97496.94;;;15.84;72.73
23616;BME280;11985;49.404;7.734;2023-08-07T18:50:30;97503.16;;;15.55;75.47
23616;BME280;11985;49.404;7.734;2023-08-07T18:55:32;97498.75;;;15.25;79.03
23616;BME280;11985;49.404;7.734;2023-08-07T19:00:34;97498.44;;;15.22;82.47
23616;BME280;11985;49.404;7.734;2023-08-07T19:05:37;97500.59;;;15.37;86.90
23616;BME280;11985;49.404;7.734;2023-08-07T19:10:39;97498.88;;;15.42;90.69
23616;BME280;11985;49.404;7.734;2023-08-07T19:15:40;97509.97;;;15.27;93.97
23616;BME280;11985;49.404;7.734;2023-08-07T19:20:43;97503.81;;;15.15;96.17
23616;BME280;11985;49.404;7.734;2023-08-07T19:25:47;97501.63;;;15.00;95.60
23616;BME280;11985;49.404;7.734;2023-08-07T19:30:49;97517.63;;;14.94;96.52
23616;BME280;11985;49.404;7.734;2023-08-07T19:35:52;97505.72;;;14.85;100.00
23616;BME280;11985;49.404;7.734;2023-08-07T19:40:54;97515.50;;;14.72;100.00
23616;BME280;11985;49.404;7.734;2023-08-07T19:45:55;97522.47;;;14.55;100.00
23616;BME280;11985;49.404;7.734;2023-08-07T19:50:59;97526.13;;;14.36;100.00
23616;BME280;11985;49.404;7.734;2023-08-07T19:56:01;97525.56;;;14.15;100.00
23616;BME280;11985;49.404;7.734;2023-08-07T20:01:03;97524.53;;;13.98;100.00
23616;BME280;11985;49.404;7.734;2023-08-07T20:06:06;97521.47;;;13.83;100.00
23616;BME280;11985;49.404;7.734;2023-08-07T20:11:08;97514.38;;;13.77;100.00
23616;BME280;11985;49.404;7.734;2023-08-07T20:16:09;97514.09;;;13.85;100.00
23616;BME280;11985;49.404;7.734;2023-08-07T20:21:12;97525.50;;;13.85;100.00
23616;BME280;11985;49.404;7.734;2023-08-07T20:26:16;97523.34;;;13.76;100.00
23616;BME280;11985;49.404;7.734;2023-08-07T20:31:18;97522.31;;;13.58;100.00
23616;BME280;11985;49.404;7.734;2023-08-07T20:36:21;97526.53;;;13.41;100.00
23616;BME280;11985;49.404;7.734;2023-08-07T20:41:23;97518.38;;;13.17;100.00
23616;BME280;11985;49.404;7.734;2023-08-07T20:46:24;97518.09;;;13.01;100.00
23616;BME280;11985;49.404;7.734;2023-08-07T20:51:27;97516.34;;;12.88;100.00
23616;BME280;11985;49.404;7.734;2023-08-07T20:56:29;97513.84;;;12.68;100.00
23616;BME280;11985;49.404;7.734;2023-08-07T21:01:30;97519.22;;;12.55;100.00
23616;BME280;11985;49.404;7.734;2023-08-07T21:06:33;97511.50;;;12.47;100.00
23616;BME280;11985;49.404;7.734;2023-08-07T21:11:35;97507.03;;;12.47;100.00
23616;BME280;11985;49.404;7.734;2023-08-07T21:16:36;97505.81;;;12.50;100.00
23616;BME280;11985;49.404;7.734;2023-08-07T21:21:39;97502.09;;;12.57;100.00
23616;BME280;11985;49.404;7.734;2023-08-07T21:26:41;97486.00;;;12.65;100.00
23616;BME280;11985;49.404;7.734;2023-08-07T21:31:43;97488.81;;;12.71;100.00
23616;BME280;11985;49.404;7.734;2023-08-07T21:36:46;97480.91;;;12.64;100.00
23616;BME280;11985;49.404;7.734;2023-08-07T21:41:48;97474.94;;;12.50;100.00
23616;BME280;11985;49.404;7.734;2023-08-07T21:46:49;97474.63;;;12.33;100.00
23616;BME280;11985;49.404;7.734;2023-08-07T21:51:52;97471.03;;;12.14;100.00
23616;BME280;11985;49.404;7.734;2023-08-07T21:56:53;97467.25;;;11.97;100.00
23616;BME280;11985;49.404;7.734;2023-08-07T22:01:56;97474.81;;;11.74;100.00
23616;BME280;11985;49.404;7.734;2023-08-07T22:06:59;97470.78;;;11.64;100.00
23616;BME280;11985;49.404;7.734;2023-08-07T22:12:01;97461.06;;;11.58;100.00
23616;BME280;11985;49.404;7.734;2023-08-07T22:17:03;97471.41;;;11.53;100.00
23616;BME280;11985;49.404;7.734;2023-08-07T22:22:06;97461.28;;;11.50;100.00
23616;BME280;11985;49.404;7.734;2023-08-07T22:27:08;97446.69;;;11.41;100.00
23616;BME280;11985;49.404;7.734;2023-08-07T22:32:09;97449.97;;;11.30;100.00
23616;BME280;11985;49.404;7.734;2023-08-07T22:37:12;97450.00;;;11.17;100.00
23616;BME280;11985;49.404;7.734;2023-08-07T22:42:15;97457.50;;;11.06;100.00
23616;BME280;11985;49.404;7.734;2023-08-07T22:47:17;97453.44;;;10.91;100.00
23616;BME280;11985;49.404;7.734;2023-08-07T22:52:20;97449.78;;;10.85;100.00
23616;BME280;11985;49.404;7.734;2023-08-07T22:57:22;97440.47;;;10.76;100.00
23616;BME280;11985;49.404;7.734;2023-08-07T23:02:23;97446.97;;;10.67;100.00
23616;BME280;11985;49.404;7.734;2023-08-07T23:07:26;97449.78;;;10.58;100.00
23616;BME280;11985;49.404;7.734;2023-08-07T23:12:28;97440.03;;;10.59;100.00
23616;BME280;11985;49.404;7.734;2023-08-07T23:17:29;97438.03;;;10.68;100.00
23616;BME280;11985;49.404;7.734;2023-08-07T23:22:32;97438.63;;;10.76;100.00
23616;BME280;11985;49.404;7.734;2023-08-07T23:27:33;97435.00;;;10.84;100.00
23616;BME280;11985;49.404;7.734;2023-08-07T23:32:35;97435.22;;;10.89;100.00
23616;BME280;11985;49.404;7.734;2023-08-07T23:37:38;97435.81;;;10.91;100.00
23616;BME280;11985;49.404;7.734;2023-08-07T23:42:40;97429.53;;;10.92;100.00
23616;BME280;11985;49.404;7.734;2023-08-07T23:47:42;97421.84;;;10.84;100.00
23616;BME280;11985;49.404;7.734;2023-08-07T23:52:45;97416.97;;;10.74;100.00
23616;BME280;11985;49.404;7.734;2023-08-07T23:57:47;97415.34;;;10.67;100.00
